Time;durP1;ratioP1;P1;durP2;ratioP2;P2;SDS_P1;SDS_P2;PMS_P1;PMS_P2;Temp;Humidity;BMP_temperature;BMP_pressure;BME280_temperature;BME280_humidity;BME280_pressure;Samples;Min_cycle;Max_cycle;Signal;HPM_P1;HPM_P2
2021/12/06 00:00:44;;;;;;;52.58;18.48;;;4.20;92.10;;;;;;5059398;28;20091;-79
2021/12/06 00:03:23;;;;;;;49.53;17.88;;;4.10;92.30;;;;;;5061784;28;20478;-79
2021/12/06 00:05:49;;;;;;;50.05;17.98;;;4.10;92.10;;;;;;5066041;28;20074;-79
2021/12/06 00:08:15;;;;;;;56.80;19.52;;;4.10;92.10;;;;;;5062511;28;20199;-79
2021/12/06 00:10:42;;;;;;;48.08;18.60;;;4.10;92.10;;;;;;5068449;28;20108;-79
2021/12/06 00:13:08;;;;;;;50.78;18.58;;;4.00;92.00;;;;;;5081110;28;20460;-79
2021/12/06 00:15:34;;;;;;;60.42;19.35;;;4.00;92.10;;;;;;5036531;28;20457;-79
2021/12/06 00:18:00;;;;;;;59.30;20.45;;;4.00;92.10;;;;;;5072314;28;20087;-79
2021/12/06 00:20:26;;;;;;;57.60;20.38;;;4.00;92.00;;;;;;5054283;28;20087;-79
2021/12/06 00:22:52;;;;;;;56.65;20.98;;;4.00;92.00;;;;;;5053809;28;20084;-79
2021/12/06 00:25:19;;;;;;;55.38;20.35;;;4.00;92.00;;;;;;5067349;28;20077;-79
2021/12/06 00:27:44;;;;;;;51.25;17.35;;;4.00;92.00;;;;;;5050023;28;20097;-79
2021/12/06 00:30:15;;;;;;;64.40;20.85;;;4.00;92.00;;;;;;5084225;28;20069;-79
2021/12/06 00:32:41;;;;;;;65.50;21.88;;;4.00;91.90;;;;;;5070021;28;20441;-78
2021/12/06 00:35:11;;;;;;;63.75;20.98;;;3.90;91.90;;;;;;5053694;28;20444;-79
2021/12/06 00:37:43;;;;;;;59.42;21.02;;;3.90;92.00;;;;;;5083142;28;20074;-78
2021/12/06 00:40:11;;;;;;;66.68;22.00;;;3.90;91.90;;;;;;5053823;28;20445;-79
2021/12/06 00:42:37;;;;;;;70.45;24.15;;;3.90;92.00;;;;;;5048897;28;20077;-79
2021/12/06 00:45:05;;;;;;;73.18;23.23;;;3.90;92.10;;;;;;5041556;28;20074;-79
2021/12/06 00:47:31;;;;;;;70.85;22.55;;;3.90;92.10;;;;;;5067032;28;20120;-78
2021/12/06 00:49:57;;;;;;;77.18;22.70;;;3.90;92.10;;;;;;5088527;28;20102;-78
2021/12/06 00:52:23;;;;;;;68.97;22.02;;;3.90;92.10;;;;;;5051503;28;20078;-79
2021/12/06 00:54:50;;;;;;;74.65;24.98;;;3.90;92.00;;;;;;5050511;28;20712;-79
2021/12/06 00:57:16;;;;;;;69.78;23.67;;;3.80;92.00;;;;;;5050270;28;20097;-79
2021/12/06 00:59:42;;;;;;;71.32;25.30;;;3.90;92.10;;;;;;5036306;28;20078;-79
2021/12/06 01:02:12;;;;;;;79.05;25.02;;;3.90;92.20;;;;;;5069087;28;20611;-78
2021/12/06 01:04:42;;;;;;;75.15;25.40;;;3.90;92.10;;;;;;5064454;28;20548;-79
2021/12/06 01:07:08;;;;;;;71.38;24.40;;;3.90;92.10;;;;;;5069494;28;20436;-79
2021/12/06 01:09:35;;;;;;;78.85;24.88;;;3.90;92.10;;;;;;5053335;28;20629;-79
2021/12/06 01:12:01;;;;;;;79.40;25.27;;;3.90;92.10;;;;;;5070099;28;20073;-78
2021/12/06 01:14:27;;;;;;;81.22;25.92;;;3.90;92.20;;;;;;5046584;28;20568;-79
2021/12/06 01:16:53;;;;;;;81.53;25.98;;;3.90;92.10;;;;;;5044920;28;20211;-79
2021/12/06 01:19:19;;;;;;;80.38;25.73;;;4.00;92.20;;;;;;5050434;28;20084;-79
2021/12/06 01:21:52;;;;;;;76.35;26.38;;;3.90;92.10;;;;;;5054411;28;20073;-79
2021/12/06 01:24:25;;;;;;;78.32;26.33;;;4.00;92.10;;;;;;5054758;28;20120;-78
2021/12/06 01:32:00;;;;;;;77.07;23.80;;;3.90;92.00;;;;;;5070756;28;20511;-79
2021/12/06 01:39:55;;;;;;;77.93;24.42;;;4.00;92.10;;;;;;5083213;28;20163;-79
2021/12/06 01:42:21;;;;;;;82.82;27.70;;;3.90;92.10;;;;;;5050958;28;20145;-79
2021/12/06 01:44:50;;;;;;;81.13;25.70;;;3.90;92.00;;;;;;5069580;28;20097;-79
2021/12/06 01:47:29;;;;;;;80.43;25.42;;;3.90;92.00;;;;;;5070995;28;20159;-79
2021/12/06 01:50:08;;;;;;;82.13;24.88;;;3.90;92.00;;;;;;5074406;28;20153;-79
2021/12/06 01:52:38;;;;;;;84.45;26.75;;;3.90;92.10;;;;;;5087021;28;20078;-79
2021/12/06 01:55:07;;;;;;;81.45;25.83;;;3.90;92.00;;;;;;5074401;28;20115;-79
2021/12/06 01:57:34;;;;;;;81.25;24.92;;;3.90;92.00;;;;;;5092617;28;20097;-79
2021/12/06 02:00:01;;;;;;;77.57;25.33;;;3.90;92.00;;;;;;5054311;28;20154;-79
2021/12/06 02:02:29;;;;;;;85.47;26.77;;;3.90;92.10;;;;;;5049549;28;20078;-79
2021/12/06 02:04:55;;;;;;;87.47;26.05;;;4.00;92.10;;;;;;5055141;28;20089;-79
2021/12/06 02:07:23;;;;;;;89.80;27.08;;;3.90;92.00;;;;;;5087296;28;20085;-79
2021/12/06 02:09:51;;;;;;;88.03;27.00;;;4.00;92.00;;;;;;5069734;28;20167;-79
2021/12/06 02:12:18;;;;;;;84.75;25.60;;;4.00;92.00;;;;;;5072620;28;20071;-79
2021/12/06 02:17:40;;;;;;;87.97;27.35;;;4.00;92.40;;;;;;5058041;28;20071;-79
2021/12/06 02:20:22;;;;;;;81.70;26.27;;;4.00;92.10;;;;;;5067602;28;20070;-79
2021/12/06 02:22:49;;;;;;;85.50;26.42;;;4.00;92.10;;;;;;5069105;28;20149;-79
2021/12/06 02:25:18;;;;;;;89.10;27.15;;;4.00;92.20;;;;;;5067713;28;20068;-79
2021/12/06 02:27:45;;;;;;;94.10;29.55;;;4.00;92.20;;;;;;5053420;28;20235;-79
2021/12/06 02:30:13;;;;;;;88.90;26.73;;;4.10;92.20;;;;;;5039792;28;20073;-79
2021/12/06 02:32:40;;;;;;;83.10;26.30;;;4.10;92.10;;;;;;5054605;28;20422;-79
2021/12/06 02:35:12;;;;;;;82.45;25.05;;;4.10;92.10;;;;;;5051468;28;20067;-79
2021/12/06 02:37:38;;;;;;;79.55;25.65;;;4.10;92.10;;;;;;5068249;28;20802;-79
2021/12/06 02:40:15;;;;;;;93.53;26.80;;;4.10;92.10;;;;;;5066248;28;20123;-79
2021/12/06 02:42:43;;;;;;;80.55;24.88;;;4.10;92.00;;;;;;5086688;28;20076;-79
2021/12/06 02:45:12;;;;;;;83.53;25.55;;;4.10;92.00;;;;;;5052200;28;20178;-79
2021/12/06 02:47:38;;;;;;;91.07;26.55;;;4.10;92.00;;;;;;5066318;28;20108;-79
2021/12/06 02:50:08;;;;;;;83.82;27.85;;;4.10;92.00;;;;;;5067380;28;20065;-78
2021/12/06 02:52:34;;;;;;;88.05;26.88;;;4.10;92.10;;;;;;5054937;28;20151;-79
2021/12/06 02:55:07;;;;;;;94.07;28.13;;;4.10;92.20;;;;;;5049958;28;20520;-79
2021/12/06 02:57:37;;;;;;;89.88;26.42;;;4.10;92.10;;;;;;5066469;28;20070;-79
2021/12/06 03:00:09;;;;;;;91.97;25.85;;;4.10;92.00;;;;;;5040293;28;20502;-79
2021/12/06 03:02:35;;;;;;;96.88;27.98;;;4.10;92.00;;;;;;5077891;28;20157;-78
2021/12/06 03:05:01;;;;;;;93.78;25.30;;;4.10;92.00;;;;;;5056772;28;20191;-79
2021/12/06 03:07:28;;;;;;;86.18;26.67;;;4.10;92.10;;;;;;5034666;28;20097;-79
2021/12/06 03:09:56;;;;;;;98.70;29.17;;;4.10;92.10;;;;;;5068051;28;20106;-79
2021/12/06 03:12:26;;;;;;;84.53;26.80;;;4.10;92.00;;;;;;5061624;28;20431;-79
2021/12/06 03:14:56;;;;;;;88.25;27.67;;;4.10;92.00;;;;;;5088020;28;20059;-79
2021/12/06 03:17:24;;;;;;;88.90;27.60;;;4.10;92.10;;;;;;5067499;28;20487;-79
2021/12/06 03:19:50;;;;;;;85.70;26.45;;;4.10;92.00;;;;;;5051931;28;20419;-79
2021/12/06 03:22:17;;;;;;;95.28;29.08;;;4.10;92.00;;;;;;5055816;28;20162;-79
2021/12/06 03:24:43;;;;;;;92.53;29.27;;;4.10;92.10;;;;;;5054263;28;20073;-79
2021/12/06 03:27:10;;;;;;;97.38;27.90;;;4.10;92.10;;;;;;5068766;28;20081;-79
2021/12/06 03:29:36;;;;;;;87.63;27.92;;;4.10;92.10;;;;;;5066954;28;20081;-79
2021/12/06 03:32:03;;;;;;;86.50;26.70;;;4.20;92.10;;;;;;5068653;28;20069;-79
2021/12/06 03:34:29;;;;;;;84.55;26.98;;;4.20;92.00;;;;;;5090705;28;20161;-79
2021/12/06 03:36:57;;;;;;;91.32;30.30;;;4.10;92.00;;;;;;5057024;28;20097;-79
2021/12/06 03:39:30;;;;;;;94.03;28.38;;;4.10;92.00;;;;;;5071618;28;20131;-79
2021/12/06 03:42:01;;;;;;;93.20;26.88;;;4.20;92.00;;;;;;5068145;28;20078;-79
2021/12/06 03:44:28;;;;;;;99.65;29.38;;;4.10;92.00;;;;;;5086838;28;20073;-79
2021/12/06 03:46:57;;;;;;;96.82;29.48;;;4.10;92.00;;;;;;5070368;28;20077;-79
2021/12/06 03:49:23;;;;;;;97.80;28.95;;;4.10;92.00;;;;;;5062316;28;20780;-79
2021/12/06 03:51:49;;;;;;;85.78;24.05;;;4.10;92.00;;;;;;5065133;28;20085;-78
2021/12/06 03:54:19;;;;;;;89.30;26.45;;;4.10;92.00;;;;;;5065491;28;20079;-78
2021/12/06 03:56:46;;;;;;;89.82;26.17;;;4.10;92.00;;;;;;5068941;28;20078;-78
2021/12/06 03:59:12;;;;;;;97.97;29.63;;;4.10;92.00;;;;;;5049689;28;20524;-78
2021/12/06 04:01:38;;;;;;;90.50;28.92;;;4.10;92.00;;;;;;5071733;28;20081;-78
2021/12/06 04:04:06;;;;;;;96.35;28.60;;;4.10;92.10;;;;;;5052310;28;20245;-79
2021/12/06 04:06:33;;;;;;;99.95;28.98;;;4.10;92.10;;;;;;5070079;28;20127;-78
2021/12/06 04:08:59;;;;;;;97.68;29.70;;;4.10;92.10;;;;;;5051099;28;20127;-78
2021/12/06 04:16:30;;;;;;;101.05;29.30;;;4.10;92.10;;;;;;5063880;28;20111;-73
2021/12/06 04:18:55;;;;;;;100.75;30.20;;;4.10;92.10;;;;;;5043046;28;20578;-77
2021/12/06 04:21:22;;;;;;;89.35;29.63;;;4.10;92.10;;;;;;5067221;28;20076;-77
2021/12/06 04:23:48;;;;;;;94.63;28.33;;;4.10;92.10;;;;;;5026438;28;20168;-77
2021/12/06 04:26:14;;;;;;;98.72;29.05;;;4.20;92.20;;;;;;5045754;28;20216;-77
2021/12/06 04:28:47;;;;;;;98.10;27.98;;;4.10;92.10;;;;;;5044061;28;20095;-77
2021/12/06 04:31:14;;;;;;;98.25;28.83;;;4.20;92.50;;;;;;5031343;28;20531;-77
2021/12/06 04:33:39;;;;;;;97.20;28.48;;;4.20;92.20;;;;;;5063976;28;20082;-77
2021/12/06 04:36:05;;;;;;;95.25;27.95;;;4.20;92.10;;;;;;5064568;28;20099;-77
2021/12/06 04:38:31;;;;;;;99.03;29.42;;;4.20;92.10;;;;;;5027993;28;20082;-77
2021/12/06 04:40:57;;;;;;;99.15;27.23;;;4.20;92.20;;;;;;5064534;28;20441;-78
2021/12/06 04:43:22;;;;;;;100.10;29.63;;;4.20;92.20;;;;;;5048036;28;20089;-77
2021/12/06 04:45:48;;;;;;;87.15;28.27;;;4.20;92.10;;;;;;5051999;28;20780;-77
2021/12/06 04:48:14;;;;;;;94.32;27.92;;;4.20;92.10;;;;;;5063908;28;20095;-74
2021/12/06 04:50:42;;;;;;;95.28;27.98;;;4.20;92.10;;;;;;5045114;28;20082;-74
2021/12/06 04:53:19;;;;;;;96.07;27.63;;;4.20;92.10;;;;;;5034170;28;20081;-74
2021/12/06 04:56:02;;;;;;;105.63;30.92;;;4.10;92.10;;;;;;5061875;28;20081;-74
2021/12/06 04:58:33;;;;;;;106.32;28.83;;;4.20;92.10;;;;;;5043950;28;20220;-75
2021/12/06 05:01:24;;;;;;;92.35;27.92;;;4.20;92.20;;;;;;5061783;28;20074;-74
2021/12/06 05:03:51;;;;;;;99.60;29.35;;;4.20;92.20;;;;;;5050556;28;20131;-74
2021/12/06 05:06:23;;;;;;;103.93;30.17;;;4.20;92.20;;;;;;5050362;28;20526;-74
2021/12/06 05:08:52;;;;;;;96.88;27.98;;;4.20;92.20;;;;;;5064997;28;20083;-74
2021/12/06 05:11:22;;;;;;;85.22;25.90;;;4.10;92.10;;;;;;5063724;28;20073;-75
2021/12/06 05:13:49;;;;;;;103.03;29.67;;;4.20;92.20;;;;;;5050919;28;20126;-75
2021/12/06 05:16:15;;;;;;;88.97;28.10;;;4.20;92.20;;;;;;5063958;28;20581;-75
2021/12/06 05:18:40;;;;;;;102.78;29.27;;;4.10;92.10;;;;;;5058593;28;20074;-74
2021/12/06 05:21:06;;;;;;;92.00;28.05;;;4.10;92.20;;;;;;5051890;28;20088;-74
2021/12/06 05:23:32;;;;;;;100.93;28.50;;;4.20;92.20;;;;;;5023695;28;20156;-75
2021/12/06 05:25:58;;;;;;;97.88;28.73;;;4.20;92.20;;;;;;5045639;28;20074;-74
2021/12/06 05:28:27;;;;;;;85.45;26.63;;;4.10;92.20;;;;;;5045052;28;20101;-75
2021/12/06 05:30:56;;;;;;;97.05;26.75;;;4.10;92.20;;;;;;5041559;28;20189;-75
2021/12/06 05:33:30;;;;;;;101.80;27.42;;;4.10;92.20;;;;;;5066898;28;20092;-74
2021/12/06 05:35:58;;;;;;;100.88;27.10;;;4.10;92.20;;;;;;5043360;28;20521;-74
2021/12/06 05:38:26;;;;;;;107.03;30.25;;;4.10;92.20;;;;;;5064644;28;20577;-74
2021/12/06 05:40:53;;;;;;;100.40;29.60;;;4.10;92.30;;;;;;5062564;28;20587;-74
2021/12/06 05:43:18;;;;;;;94.93;26.20;;;4.10;92.30;;;;;;5062688;28;20076;-74
2021/12/06 05:45:44;;;;;;;98.35;28.75;;;4.10;92.30;;;;;;5062479;28;20079;-74
2021/12/06 05:48:10;;;;;;;108.47;29.52;;;4.10;92.30;;;;;;5047492;28;20192;-75
2021/12/06 05:50:35;;;;;;;108.68;28.70;;;4.20;92.40;;;;;;5058904;28;20144;-75
2021/12/06 05:53:02;;;;;;;105.75;29.58;;;4.20;92.40;;;;;;5047017;28;20068;-74
2021/12/06 05:55:28;;;;;;;104.18;30.40;;;4.20;92.40;;;;;;5044943;28;20082;-75
2021/12/06 05:57:57;;;;;;;105.95;29.90;;;4.20;92.40;;;;;;5032128;28;20073;-75
2021/12/06 06:00:27;;;;;;;99.75;27.75;;;4.20;92.40;;;;;;5063677;28;20108;-75
2021/12/06 06:02:53;;;;;;;100.88;27.88;;;4.20;92.40;;;;;;5045397;28;20165;-78
2021/12/06 06:05:20;;;;;;;104.68;27.83;;;4.20;92.30;;;;;;5047135;28;20165;-78
2021/12/06 06:07:46;;;;;;;113.05;28.83;;;4.20;92.40;;;;;;5026834;28;20090;-79
2021/12/06 06:10:12;;;;;;;100.75;27.42;;;4.20;92.40;;;;;;5065041;28;20117;-79
2021/12/06 06:12:38;;;;;;;105.80;29.52;;;4.20;92.40;;;;;;5063462;28;20428;-78
2021/12/06 06:15:04;;;;;;;99.85;29.45;;;4.20;92.40;;;;;;5044047;28;20111;-78
2021/12/06 06:17:39;;;;;;;103.10;26.52;;;4.20;92.40;;;;;;5047401;28;20067;-78
2021/12/06 06:20:06;;;;;;;103.78;28.85;;;4.20;92.40;;;;;;5045344;28;20069;-78
2021/12/06 06:22:32;;;;;;;116.13;29.17;;;4.20;92.40;;;;;;5046966;28;20074;-78
2021/12/06 06:24:57;;;;;;;119.15;29.88;;;4.20;92.40;;;;;;5040613;28;20076;-78
2021/12/06 06:27:23;;;;;;;128.27;30.67;;;4.20;92.40;;;;;;5043800;28;20437;-79
2021/12/06 06:29:49;;;;;;;119.85;30.30;;;4.20;92.40;;;;;;5060309;28;20097;-78
2021/12/06 06:32:14;;;;;;;115.68;28.60;;;4.20;92.40;;;;;;5065215;28;24285;-78
2021/12/06 06:34:40;;;;;;;126.80;29.90;;;4.10;92.40;;;;;;5053563;28;20168;-78
2021/12/06 06:37:06;;;;;;;122.00;30.10;;;4.10;92.40;;;;;;5036062;28;20526;-78
2021/12/06 06:39:32;;;;;;;129.05;32.38;;;4.10;92.50;;;;;;5037715;28;20067;-78
2021/12/06 06:41:58;;;;;;;124.03;30.40;;;4.10;92.50;;;;;;5036253;28;20727;-78
2021/12/06 06:44:24;;;;;;;138.20;30.73;;;4.10;92.60;;;;;;5034930;28;20083;-79
2021/12/06 06:46:50;;;;;;;121.97;29.42;;;4.10;92.60;;;;;;5052172;28;20071;-78
2021/12/06 06:49:17;;;;;;;139.60;30.70;;;4.10;92.60;;;;;;5052254;28;20089;-79
2021/12/06 06:51:46;;;;;;;125.70;31.73;;;4.10;92.60;;;;;;5069092;28;20519;-79
2021/12/06 06:54:12;;;;;;;124.40;31.35;;;4.10;92.60;;;;;;5032005;28;20077;-79
2021/12/06 06:56:37;;;;;;;131.80;32.85;;;4.10;92.60;;;;;;5034413;28;20093;-79
2021/12/06 06:59:03;;;;;;;138.32;32.97;;;4.10;92.70;;;;;;5052844;28;20540;-79
2021/12/06 07:01:29;;;;;;;129.00;29.58;;;4.20;92.70;;;;;;5052457;28;20066;-78
2021/12/06 07:03:55;;;;;;;136.75;30.95;;;4.20;92.70;;;;;;5050895;28;20098;-78
2021/12/06 07:06:22;;;;;;;140.98;31.75;;;4.20;92.70;;;;;;5051667;28;20540;-78
2021/12/06 07:08:48;;;;;;;136.95;33.75;;;4.20;92.70;;;;;;5053379;28;20183;-78
2021/12/06 07:11:14;;;;;;;136.32;31.85;;;4.20;92.70;;;;;;5050824;28;20150;-79
2021/12/06 07:13:40;;;;;;;136.57;32.20;;;4.20;92.70;;;;;;5053500;28;20482;-78
2021/12/06 07:16:07;;;;;;;154.85;31.95;;;4.20;92.70;;;;;;5072460;28;20124;-78
2021/12/06 07:18:33;;;;;;;144.25;33.38;;;4.20;92.70;;;;;;5059142;28;20092;-78
2021/12/06 07:21:00;;;;;;;140.98;29.85;;;4.20;92.70;;;;;;5077943;28;20075;-78
2021/12/06 07:23:25;;;;;;;140.63;30.50;;;4.20;92.80;;;;;;5052977;28;20079;-79
2021/12/06 07:25:51;;;;;;;158.80;34.90;;;4.20;92.80;;;;;;5073167;28;20072;-78
2021/12/06 07:28:17;;;;;;;155.70;34.42;;;4.20;92.80;;;;;;5069939;28;20098;-78
2021/12/06 07:30:43;;;;;;;145.73;33.38;;;4.20;92.80;;;;;;5053010;28;20077;-79
2021/12/06 07:33:08;;;;;;;155.75;35.08;;;4.20;92.80;;;;;;5050836;28;20074;-79
2021/12/06 07:35:34;;;;;;;160.30;35.30;;;4.20;92.90;;;;;;5047545;28;20082;-79
2021/12/06 07:38:03;;;;;;;150.23;32.97;;;4.20;92.90;;;;;;5052630;28;20094;-79
2021/12/06 07:40:30;;;;;;;162.52;35.15;;;4.30;92.80;;;;;;5070833;28;20070;-79
2021/12/06 07:42:56;;;;;;;170.75;36.65;;;4.30;92.80;;;;;;5067327;28;20532;-78
2021/12/06 07:45:23;;;;;;;149.65;33.80;;;4.30;92.80;;;;;;5070290;28;20120;-78
2021/12/06 07:47:49;;;;;;;153.38;34.72;;;4.30;92.80;;;;;;5065757;28;20170;-79
2021/12/06 07:50:17;;;;;;;169.43;35.88;;;4.30;92.90;;;;;;5070278;28;20536;-78
2021/12/06 07:52:44;;;;;;;158.30;35.97;;;4.30;92.90;;;;;;5068435;28;20074;-74
2021/12/06 07:55:13;;;;;;;140.55;34.70;;;4.30;92.90;;;;;;5064798;28;20143;-74
2021/12/06 07:57:39;;;;;;;145.27;31.25;;;4.30;92.80;;;;;;5069046;28;20062;-74
2021/12/06 08:00:13;;;;;;;133.95;32.42;;;4.30;92.80;;;;;;5053317;28;20440;-74
2021/12/06 08:02:39;;;;;;;156.55;32.88;;;4.30;92.90;;;;;;5054363;28;20063;-74
2021/12/06 08:07:51;;;;;;;127.95;30.55;;;4.30;92.80;;;;;;5071000;28;20755;-74
2021/12/06 08:10:16;;;;;;;139.25;31.27;;;4.30;92.80;;;;;;5068474;28;20070;-74
2021/12/06 08:12:42;;;;;;;129.15;32.45;;;4.30;92.80;;;;;;5034728;28;20086;-74
2021/12/06 08:15:09;;;;;;;130.00;30.02;;;4.30;92.80;;;;;;5070605;28;20123;-74
2021/12/06 08:17:34;;;;;;;144.13;33.10;;;4.30;92.70;;;;;;5054188;28;20070;-74
2021/12/06 08:20:00;;;;;;;133.55;31.77;;;4.30;92.70;;;;;;5048548;28;20538;-74
2021/12/06 08:22:26;;;;;;;132.07;31.83;;;4.30;92.70;;;;;;5069378;28;20077;-74
2021/12/06 08:24:52;;;;;;;136.52;33.20;;;4.30;92.70;;;;;;5066857;28;20206;-74
2021/12/06 08:27:17;;;;;;;140.25;36.75;;;4.30;92.70;;;;;;5049075;28;20414;-78
2021/12/06 08:29:43;;;;;;;120.10;30.40;;;4.30;92.80;;;;;;5036478;28;20092;-78
2021/12/06 08:32:11;;;;;;;120.70;31.60;;;4.30;93.10;;;;;;5049873;28;20070;-74
2021/12/06 08:34:41;;;;;;;110.50;30.02;;;4.30;92.70;;;;;;5054538;28;20132;-74
2021/12/06 08:37:10;;;;;;;118.57;30.35;;;4.30;92.70;;;;;;5050866;28;20085;-78
2021/12/06 08:39:36;;;;;;;122.97;26.92;;;4.30;92.60;;;;;;5056465;28;20525;-74
2021/12/06 08:42:03;;;;;;;107.28;27.30;;;4.30;93.00;;;;;;5068115;28;20184;-74
2021/12/06 08:44:29;;;;;;;105.85;29.70;;;4.30;92.60;;;;;;5049299;28;20144;-78
2021/12/06 08:46:55;;;;;;;98.72;27.02;;;4.30;92.50;;;;;;5072256;28;20524;-78
2021/12/06 08:49:21;;;;;;;99.88;26.08;;;4.30;92.50;;;;;;5049673;28;20139;-78
2021/12/06 08:51:50;;;;;;;113.03;26.85;;;4.30;92.60;;;;;;5040214;28;20064;-78
2021/12/06 08:54:18;;;;;;;97.55;25.83;;;4.30;92.50;;;;;;5071676;28;20140;-78
2021/12/06 08:56:46;;;;;;;105.80;27.17;;;4.30;92.40;;;;;;5068868;28;20160;-78
2021/12/06 08:59:12;;;;;;;109.88;28.55;;;4.30;92.50;;;;;;5071333;28;20133;-78
2021/12/06 09:01:39;;;;;;;109.47;29.48;;;4.30;92.40;;;;;;5056953;28;20246;-78
2021/12/06 09:04:21;;;;;;;107.60;29.10;;;4.30;92.40;;;;;;5069072;28;20075;-79
2021/12/06 09:06:50;;;;;;;102.65;27.08;;;4.30;92.40;;;;;;5070099;28;20066;-79
2021/12/06 09:09:16;;;;;;;99.95;27.88;;;4.30;92.30;;;;;;5033518;28;20091;-78
2021/12/06 09:11:43;;;;;;;108.75;28.77;;;4.40;92.40;;;;;;5070210;28;20542;-74
2021/12/06 09:14:09;;;;;;;111.72;28.70;;;4.40;92.30;;;;;;5048963;28;20076;-74
2021/12/06 09:16:36;;;;;;;118.25;29.65;;;4.40;92.30;;;;;;5062829;28;20095;-78
2021/12/06 09:19:06;;;;;;;114.60;28.73;;;4.40;92.30;;;;;;5075171;28;20078;-74
2021/12/06 09:21:32;;;;;;;109.72;30.38;;;4.40;92.30;;;;;;5070716;28;20076;-74
2021/12/06 09:24:00;;;;;;;110.80;28.98;;;4.50;92.30;;;;;;5048260;28;20110;-74
2021/12/06 09:26:28;;;;;;;111.22;30.67;;;4.50;92.20;;;;;;5065420;28;20073;-74
2021/12/06 09:28:54;;;;;;;125.68;31.25;;;4.50;92.20;;;;;;5049752;28;20086;-74
2021/12/06 09:31:21;;;;;;;118.18;30.42;;;4.50;92.20;;;;;;5069887;28;20120;-74
2021/12/06 09:33:47;;;;;;;124.18;31.75;;;4.50;92.20;;;;;;5067428;28;20064;-74
2021/12/06 09:36:14;;;;;;;129.48;31.90;;;4.50;92.20;;;;;;5051726;28;20077;-74
2021/12/06 09:38:41;;;;;;;112.45;29.63;;;4.50;92.10;;;;;;5051687;28;20121;-74
2021/12/06 09:41:12;;;;;;;132.57;34.05;;;4.50;92.20;;;;;;5064384;28;20458;-74
2021/12/06 09:43:40;;;;;;;120.68;30.17;;;4.50;92.10;;;;;;5074130;28;20066;-75
2021/12/06 09:46:11;;;;;;;117.35;29.55;;;4.50;92.10;;;;;;5048661;28;20536;-75
2021/12/06 09:48:39;;;;;;;116.13;28.08;;;4.50;92.10;;;;;;5071123;28;20092;-74
2021/12/06 09:51:10;;;;;;;106.95;27.30;;;4.40;92.10;;;;;;5052712;28;20054;-74
2021/12/06 09:53:38;;;;;;;113.83;31.23;;;4.40;92.10;;;;;;5051279;28;20126;-74
2021/12/06 09:56:12;;;;;;;104.90;25.00;;;4.40;92.10;;;;;;5070823;28;20127;-74
2021/12/06 09:58:38;;;;;;;99.10;26.35;;;4.50;92.10;;;;;;5071271;28;20530;-74
2021/12/06 10:01:14;;;;;;;95.53;25.75;;;4.50;92.10;;;;;;5068429;28;20085;-74
2021/12/06 10:03:40;;;;;;;102.90;27.95;;;4.40;92.00;;;;;;5066610;28;20092;-74
2021/12/06 10:06:06;;;;;;;93.75;25.33;;;4.50;92.00;;;;;;5053101;28;20072;-74
2021/12/06 10:08:37;;;;;;;89.05;22.63;;;4.50;92.10;;;;;;5051091;28;23332;-74
2021/12/06 10:11:05;;;;;;;94.78;24.00;;;4.50;92.10;;;;;;5072380;28;20060;-75
2021/12/06 10:13:32;;;;;;;88.43;24.33;;;4.50;92.00;;;;;;5054801;28;20086;-78
2021/12/06 10:15:58;;;;;;;85.85;23.92;;;4.50;92.00;;;;;;5069317;28;20129;-78
2021/12/06 10:18:24;;;;;;;81.97;23.55;;;4.40;92.00;;;;;;5071809;28;20080;-74
2021/12/06 10:20:50;;;;;;;91.70;23.85;;;4.40;92.00;;;;;;5058274;28;20084;-74
2021/12/06 10:23:18;;;;;;;92.93;24.67;;;4.40;91.90;;;;;;5056036;28;20101;-74
2021/12/06 10:25:53;;;;;;;90.90;27.13;;;4.40;92.00;;;;;;5072876;28;20079;-74
2021/12/06 10:28:23;;;;;;;94.70;26.38;;;4.40;92.00;;;;;;5052926;28;20170;-74
2021/12/06 10:30:56;;;;;;;98.95;26.40;;;4.40;91.90;;;;;;5057211;28;20542;-74
2021/12/06 10:33:28;;;;;;;94.70;26.25;;;4.40;91.90;;;;;;5045642;28;20115;-74
2021/12/06 10:36:00;;;;;;;91.55;24.88;;;4.40;92.00;;;;;;5070773;28;20837;-78
2021/12/06 10:38:29;;;;;;;98.47;25.55;;;4.40;92.00;;;;;;5053573;28;20074;-78
2021/12/06 10:40:57;;;;;;;99.15;25.95;;;4.40;92.00;;;;;;5066852;28;20076;-79
2021/12/06 10:43:23;;;;;;;96.75;27.83;;;4.40;92.00;;;;;;5049738;28;20071;-78
2021/12/06 10:45:50;;;;;;;96.82;25.70;;;4.40;92.10;;;;;;5049559;28;20063;-74
2021/12/06 10:48:27;;;;;;;84.22;24.48;;;4.40;92.10;;;;;;5065245;28;20083;-74
2021/12/06 10:50:53;;;;;;;96.28;24.90;;;4.40;92.10;;;;;;5053712;28;20417;-75
2021/12/06 10:53:24;;;;;;;99.55;29.10;;;4.50;92.10;;;;;;5069157;28;20141;-78
2021/12/06 10:55:52;;;;;;;101.22;25.88;;;4.50;92.10;;;;;;5052954;28;20069;-74
2021/12/06 10:58:21;;;;;;;98.20;25.67;;;4.50;92.10;;;;;;5074145;28;20073;-74
2021/12/06 11:00:54;;;;;;;99.90;25.52;;;4.50;92.00;;;;;;5047445;28;20072;-74
2021/12/06 11:03:32;;;;;;;103.13;25.13;;;4.50;92.10;;;;;;5075301;28;20075;-78
2021/12/06 11:06:26;;;;;;;114.55;27.70;;;4.50;92.10;;;;;;5071720;28;20069;-78
2021/12/06 11:08:55;;;;;;;107.35;26.88;;;4.50;92.10;;;;;;5067898;28;20084;-79
2021/12/06 11:11:28;;;;;;;119.03;28.00;;;4.50;92.10;;;;;;5047652;28;20154;-78
2021/12/06 11:14:10;;;;;;;112.78;28.90;;;4.50;92.10;;;;;;5070484;28;20130;-78
2021/12/06 11:16:42;;;;;;;124.65;29.92;;;4.50;92.10;;;;;;5069449;28;20589;-78
2021/12/06 11:19:10;;;;;;;130.18;30.63;;;4.50;92.10;;;;;;5073445;28;20520;-78
2021/12/06 11:21:43;;;;;;;123.93;29.33;;;4.50;92.20;;;;;;5055956;28;20073;-78
2021/12/06 11:24:11;;;;;;;117.75;28.83;;;4.50;92.20;;;;;;5070973;28;20069;-74
2021/12/06 11:26:45;;;;;;;107.18;27.13;;;4.60;92.20;;;;;;5068883;28;20067;-74
2021/12/06 11:29:28;;;;;;;89.55;23.77;;;4.60;92.20;;;;;;5065685;28;20176;-78
2021/12/06 11:32:10;;;;;;;107.43;26.40;;;4.50;92.20;;;;;;5067823;28;20097;-78
2021/12/06 11:34:38;;;;;;;;;;;4.60;92.10;;;;;;5054482;28;20069;-78
2021/12/06 11:37:20;;;;;;;114.93;26.38;;;4.50;92.10;;;;;;5071693;28;19953;-78
2021/12/06 11:39:50;;;;;;;98.00;26.35;;;4.50;92.10;;;;;;5048749;28;20096;-74
2021/12/06 11:42:17;;;;;;;107.88;29.05;;;4.50;92.10;;;;;;5068853;28;20460;-74
2021/12/06 11:44:43;;;;;;;107.63;27.55;;;4.50;92.10;;;;;;5053669;28;20489;-74
2021/12/06 11:47:13;;;;;;;117.18;28.42;;;4.50;92.20;;;;;;5070837;28;20156;-74
2021/12/06 11:49:46;;;;;;;114.82;28.67;;;4.50;92.20;;;;;;5046908;28;20084;-74
2021/12/06 11:52:17;;;;;;;108.07;28.58;;;4.50;92.20;;;;;;5069761;28;20096;-74
2021/12/06 11:54:51;;;;;;;113.43;28.95;;;4.50;92.20;;;;;;5069778;28;20066;-74
2021/12/06 11:57:21;;;;;;;107.93;27.45;;;4.60;92.20;;;;;;5072242;28;20085;-75
2021/12/06 11:59:54;;;;;;;115.10;28.08;;;4.60;92.20;;;;;;5050796;28;20123;-75
2021/12/06 12:02:40;;;;;;;110.00;28.55;;;4.60;92.20;;;;;;5069028;28;20157;-79
2021/12/06 12:05:19;;;;;;;115.63;26.77;;;4.60;92.20;;;;;;5052867;28;20064;-78
2021/12/06 12:07:56;;;;;;;123.70;30.45;;;4.60;92.30;;;;;;5068820;28;20525;-79
2021/12/06 12:10:34;;;;;;;124.30;30.30;;;4.60;92.20;;;;;;5067982;28;20066;-79
2021/12/06 12:13:00;;;;;;;119.32;30.95;;;4.60;92.20;;;;;;5065460;28;20059;-78
2021/12/06 12:15:26;;;;;;;111.35;28.52;;;4.70;92.20;;;;;;5053709;28;20121;-78
2021/12/06 12:17:53;;;;;;;126.13;32.25;;;4.70;92.20;;;;;;5049727;28;20445;-76
2021/12/06 12:20:23;;;;;;;129.05;31.33;;;4.70;92.20;;;;;;5069859;28;20540;-75
2021/12/06 12:22:50;;;;;;;114.15;29.48;;;4.70;92.30;;;;;;5068675;28;20125;-75
2021/12/06 12:25:28;;;;;;;118.20;28.00;;;4.70;92.40;;;;;;5049584;28;20063;-75
2021/12/06 12:28:16;;;;;;;114.28;30.10;;;4.70;92.20;;;;;;5035552;28;20140;-75
2021/12/06 12:30:42;;;;;;;107.45;30.83;;;4.70;92.20;;;;;;5065633;28;20075;-75
2021/12/06 12:33:09;;;;;;;128.32;32.78;;;4.70;92.20;;;;;;5065007;28;20532;-75
2021/12/06 12:35:37;;;;;;;127.30;32.78;;;4.80;92.10;;;;;;5064479;28;20107;-75
2021/12/06 12:38:04;;;;;;;136.68;32.20;;;4.70;92.10;;;;;;5068431;28;20061;-75
2021/12/06 12:40:52;;;;;;;123.75;31.30;;;4.80;92.20;;;;;;5048819;28;20068;-77
2021/12/06 12:43:23;;;;;;;132.10;33.35;;;4.80;92.20;;;;;;5067673;28;20071;-78
2021/12/06 12:45:52;;;;;;;116.65;32.33;;;4.80;92.10;;;;;;5051224;28;20079;-78
2021/12/06 12:48:25;;;;;;;121.70;33.55;;;4.80;92.10;;;;;;5066473;28;20088;-78
2021/12/06 12:51:10;;;;;;;90.72;22.25;;;4.80;92.20;;;;;;5049390;28;20087;-75
2021/12/06 12:53:59;;;;;;;114.82;30.70;;;4.80;92.10;;;;;;5065602;28;20067;-75
2021/12/06 12:56:43;;;;;;;124.63;31.35;;;4.80;92.00;;;;;;5066914;28;20064;-75
2021/12/06 12:59:43;;;;;;;108.43;28.77;;;4.70;92.00;;;;;;5049178;28;20077;-75
2021/12/06 13:02:31;;;;;;;131.60;33.28;;;4.80;92.10;;;;;;5062986;28;20076;-77